AAL5555 KJFK-KJFK
Flight info
| Callsign | AAL5555 |
|---|---|
| Flight time | 0h 24m |
| Altitude | 13000 |
| Route | CCC |
| Aircraft | B772/H-SDE2E3FGHIJ5LORVWXY/LB1D1 |
Departure
| Time | 2026-05-05 22:59 |
|---|---|
| Airport | John F. Kennedy International Airport (KJFK) |
Arrival
| Time | 2026-05-05 23:23 |
|---|---|
| Airport | John F. Kennedy International Airport (KJFK) |
| Time | Latitude | Longitude | Altitude | Speed | Heading |
|---|---|---|---|---|---|
| 2026-05-05 21:56 | 40.65715 | -73.80225 | 23 ft | 0 kts | 181° |
| 2026-05-05 22:45 | 40.65685 | -73.80206 | 23 ft | 10 kts | 149° |
| 2026-05-05 22:45 | 40.65644 | -73.80130 | 23 ft | 9 kts | 101° |
| 2026-05-05 22:46 | 40.65644 | -73.80046 | 23 ft | 8 kts | 88° |
| 2026-05-05 22:46 | 40.65643 | -73.79958 | 23 ft | 14 kts | 90° |
| 2026-05-05 22:46 | 40.65636 | -73.79813 | 23 ft | 13 kts | 124° |
| 2026-05-05 22:46 | 40.65572 | -73.79775 | 23 ft | 8 kts | 178° |
| 2026-05-05 22:47 | 40.65498 | -73.79775 | 23 ft | 12 kts | 180° |
| 2026-05-05 22:47 | 40.65395 | -73.79775 | 23 ft | 17 kts | 182° |
| 2026-05-05 22:47 | 40.65263 | -73.79755 | 22 ft | 18 kts | 155° |
| 2026-05-05 22:47 | 40.65179 | -73.79679 | 23 ft | 10 kts | 127° |
| 2026-05-05 22:48 | 40.65178 | -73.79586 | 23 ft | 13 kts | 64° |
| 2026-05-05 22:48 | 40.65235 | -73.79453 | 23 ft | 17 kts | 59° |
| 2026-05-05 22:48 | 40.65280 | -73.79333 | 23 ft | 12 kts | 71° |
| 2026-05-05 22:48 | 40.65288 | -73.79229 | 23 ft | 12 kts | 96° |
| 2026-05-05 22:49 | 40.65263 | -73.79100 | 23 ft | 12 kts | 107° |
| 2026-05-05 22:49 | 40.65242 | -73.79018 | 23 ft | 10 kts | 109° |
| 2026-05-05 22:49 | 40.65218 | -73.78885 | 23 ft | 17 kts | 93° |
| 2026-05-05 22:49 | 40.65241 | -73.78748 | 23 ft | 13 kts | 64° |
| 2026-05-05 22:50 | 40.65268 | -73.78684 | 23 ft | 3 kts | 60° |
| 2026-05-05 22:50 | 40.65282 | -73.78651 | 23 ft | 8 kts | 59° |
| 2026-05-05 22:50 | 40.65310 | -73.78587 | 23 ft | 6 kts | 62° |
| 2026-05-05 22:50 | 40.65335 | -73.78518 | 23 ft | 13 kts | 66° |
| 2026-05-05 22:51 | 40.65353 | -73.78378 | 23 ft | 14 kts | 112° |
| 2026-05-05 22:51 | 40.65320 | -73.78296 | 23 ft | 5 kts | 121° |
| 2026-05-05 22:51 | 40.65298 | -73.78248 | 23 ft | 9 kts | 121° |
| 2026-05-05 22:51 | 40.65255 | -73.78153 | 23 ft | 13 kts | 120° |
| 2026-05-05 22:52 | 40.65207 | -73.78047 | 23 ft | 13 kts | 121° |
| 2026-05-05 22:52 | 40.65161 | -73.77948 | 23 ft | 12 kts | 121° |
| 2026-05-05 22:52 | 40.65121 | -73.77857 | 23 ft | 10 kts | 120° |
| 2026-05-05 22:52 | 40.65084 | -73.77778 | 23 ft | 9 kts | 121° |
| 2026-05-05 22:53 | 40.65051 | -73.77704 | 23 ft | 10 kts | 120° |
| 2026-05-05 22:53 | 40.65013 | -73.77621 | 23 ft | 10 kts | 121° |
| 2026-05-05 22:53 | 40.64977 | -73.77540 | 23 ft | 10 kts | 120° |
| 2026-05-05 22:53 | 40.64948 | -73.77474 | 23 ft | 6 kts | 120° |
| 2026-05-05 22:54 | 40.64926 | -73.77426 | 23 ft | 5 kts | 120° |
| 2026-05-05 22:54 | 40.64896 | -73.77360 | 23 ft | 14 kts | 122° |
| 2026-05-05 22:54 | 40.64836 | -73.77230 | 23 ft | 14 kts | 120° |
| 2026-05-05 22:54 | 40.64799 | -73.77144 | 23 ft | 8 kts | 120° |
| 2026-05-05 22:55 | 40.64759 | -73.77058 | 23 ft | 13 kts | 121° |
| 2026-05-05 22:55 | 40.64714 | -73.76962 | 23 ft | 9 kts | 122° |
| 2026-05-05 22:55 | 40.64687 | -73.76887 | 23 ft | 10 kts | 99° |
| 2026-05-05 22:55 | 40.64740 | -73.76807 | 23 ft | 15 kts | 31° |
| 2026-05-05 22:56 | 40.64831 | -73.76736 | 23 ft | 13 kts | 30° |
| 2026-05-05 22:56 | 40.64896 | -73.76687 | 23 ft | 8 kts | 32° |
| 2026-05-05 22:56 | 40.64946 | -73.76646 | 23 ft | 11 kts | 31° |
| 2026-05-05 22:56 | 40.65033 | -73.76578 | 23 ft | 14 kts | 30° |
| 2026-05-05 22:57 | 40.65085 | -73.76531 | 23 ft | 10 kts | 52° |
| 2026-05-05 22:57 | 40.65071 | -73.76406 | 23 ft | 13 kts | 119° |
| 2026-05-05 22:57 | 40.65034 | -73.76364 | 23 ft | 2 kts | 166° |
| 2026-05-05 22:57 | 40.65019 | -73.76364 | 23 ft | 6 kts | 189° |
| 2026-05-05 22:58 | 40.64987 | -73.76382 | 23 ft | 0 kts | 210° |
| 2026-05-05 22:58 | 40.64980 | -73.76388 | 23 ft | 6 kts | 210° |
| 2026-05-05 22:58 | 40.64735 | -73.76581 | 23 ft | 76 kts | 211° |
| 2026-05-05 22:58 | 40.64111 | -73.77079 | 66 ft | 129 kts | 210° |
| 2026-05-05 22:59 | 40.63346 | -73.77688 | 725 ft | 134 kts | 210° |
| 2026-05-05 22:59 | 40.62573 | -73.78284 | 1586 ft | 128 kts | 211° |
| 2026-05-05 22:59 | 40.61767 | -73.78755 | 2087 ft | 133 kts | 189° |
| 2026-05-05 22:59 | 40.60887 | -73.78107 | 2411 ft | 173 kts | 136° |
| 2026-05-05 23:00 | 40.59904 | -73.74654 | 2998 ft | 223 kts | 117° |
| 2026-05-05 23:00 | 40.59408 | -73.72709 | 3004 ft | 223 kts | 117° |
| 2026-05-05 23:00 | 40.58915 | -73.70757 | 3019 ft | 223 kts | 117° |
| 2026-05-05 23:01 | 40.58586 | -73.68759 | 3010 ft | 233 kts | 95° |
| 2026-05-05 23:01 | 40.59060 | -73.66676 | 3001 ft | 243 kts | 59° |
| 2026-05-05 23:01 | 40.60278 | -73.65163 | 3004 ft | 245 kts | 30° |
| 2026-05-05 23:01 | 40.61762 | -73.64042 | 3023 ft | 246 kts | 27° |
| 2026-05-05 23:02 | 40.63247 | -73.62937 | 3027 ft | 245 kts | 27° |
| 2026-05-05 23:02 | 40.64740 | -73.61826 | 3024 ft | 245 kts | 27° |
| 2026-05-05 23:02 | 40.66226 | -73.60718 | 3026 ft | 245 kts | 27° |
| 2026-05-05 23:02 | 40.67721 | -73.59601 | 3025 ft | 245 kts | 27° |
| 2026-05-05 23:03 | 40.69199 | -73.58499 | 3026 ft | 246 kts | 27° |
| 2026-05-05 23:03 | 40.70681 | -73.57398 | 3025 ft | 246 kts | 27° |
| 2026-05-05 23:03 | 40.72178 | -73.56280 | 3022 ft | 245 kts | 27° |
| 2026-05-05 23:03 | 40.73673 | -73.55159 | 3024 ft | 247 kts | 27° |
| 2026-05-05 23:04 | 40.75174 | -73.54028 | 3026 ft | 247 kts | 27° |
| 2026-05-05 23:04 | 40.76651 | -73.52948 | 3033 ft | 236 kts | 19° |
| 2026-05-05 23:04 | 40.78173 | -73.52630 | 3005 ft | 211 kts | 342° |
| 2026-05-05 23:04 | 40.79403 | -73.53403 | 3001 ft | 188 kts | 305° |
| 2026-05-05 23:05 | 40.80225 | -73.54717 | 3021 ft | 185 kts | 297° |
| 2026-05-05 23:05 | 40.81005 | -73.56047 | 3015 ft | 182 kts | 297° |
| 2026-05-05 23:05 | 40.81786 | -73.57363 | 3018 ft | 182 kts | 297° |
| 2026-05-05 23:05 | 40.82555 | -73.58674 | 3013 ft | 181 kts | 295° |
| 2026-05-05 23:06 | 40.82938 | -73.60140 | 3003 ft | 164 kts | 259° |
| 2026-05-05 23:06 | 40.82554 | -73.61494 | 3003 ft | 156 kts | 233° |
| 2026-05-05 23:06 | 40.81678 | -73.62279 | 3007 ft | 156 kts | 206° |
| 2026-05-05 23:06 | 40.80687 | -73.62876 | 3016 ft | 156 kts | 211° |
| 2026-05-05 23:07 | 40.79744 | -73.63595 | 3016 ft | 157 kts | 213° |
| 2026-05-05 23:07 | 40.78810 | -73.64332 | 3021 ft | 156 kts | 213° |
| 2026-05-05 23:07 | 40.77878 | -73.65061 | 2942 ft | 158 kts | 213° |
| 2026-05-05 23:07 | 40.76996 | -73.65752 | 2775 ft | 142 kts | 212° |
| 2026-05-05 23:08 | 40.76142 | -73.66410 | 2597 ft | 137 kts | 212° |
| 2026-05-05 23:08 | 40.75356 | -73.67016 | 2407 ft | 124 kts | 213° |
| 2026-05-05 23:08 | 40.74672 | -73.67557 | 2238 ft | 108 kts | 212° |
| 2026-05-05 23:08 | 40.74042 | -73.68061 | 2078 ft | 105 kts | 213° |
| 2026-05-05 23:09 | 40.73423 | -73.68548 | 1955 ft | 101 kts | 213° |
| 2026-05-05 23:09 | 40.72811 | -73.69026 | 1847 ft | 104 kts | 212° |
| 2026-05-05 23:09 | 40.72169 | -73.69527 | 1708 ft | 107 kts | 213° |
| 2026-05-05 23:09 | 40.71522 | -73.70042 | 1561 ft | 110 kts | 212° |
| 2026-05-05 23:10 | 40.70855 | -73.70555 | 1434 ft | 112 kts | 212° |
| 2026-05-05 23:10 | 40.70176 | -73.71082 | 1280 ft | 113 kts | 211° |
| 2026-05-05 23:10 | 40.69505 | -73.71604 | 1131 ft | 113 kts | 212° |
| 2026-05-05 23:10 | 40.68833 | -73.72141 | 975 ft | 111 kts | 211° |
| 2026-05-05 23:11 | 40.68149 | -73.72659 | 845 ft | 117 kts | 210° |
| 2026-05-05 23:11 | 40.67438 | -73.73227 | 683 ft | 119 kts | 210° |
| 2026-05-05 23:11 | 40.66735 | -73.73756 | 543 ft | 117 kts | 210° |
| 2026-05-05 23:11 | 40.66044 | -73.74301 | 406 ft | 114 kts | 210° |
| 2026-05-05 23:12 | 40.65359 | -73.74833 | 250 ft | 114 kts | 209° |
| 2026-05-05 23:12 | 40.64684 | -73.75369 | 105 ft | 109 kts | 208° |
| 2026-05-05 23:12 | 40.64075 | -73.75838 | 23 ft | 90 kts | 208° |
| 2026-05-05 23:12 | 40.63635 | -73.76183 | 23 ft | 68 kts | 210° |
| 2026-05-05 23:13 | 40.63047 | -73.76644 | 82 ft | 132 kts | 210° |
| 2026-05-05 23:13 | 40.62191 | -73.77331 | 776 ft | 164 kts | 211° |
| 2026-05-05 23:13 | 40.61108 | -73.77868 | 1870 ft | 179 kts | 183° |
| 2026-05-05 23:13 | 40.59962 | -73.77108 | 2387 ft | 215 kts | 138° |
| 2026-05-05 23:14 | 40.59357 | -73.75175 | 2821 ft | 243 kts | 111° |
| 2026-05-05 23:14 | 40.58908 | -73.73040 | 3053 ft | 240 kts | 116° |
| 2026-05-05 23:14 | 40.58452 | -73.70975 | 3016 ft | 238 kts | 103° |
| 2026-05-05 23:14 | 40.58698 | -73.68818 | 2997 ft | 240 kts | 69° |
| 2026-05-05 23:15 | 40.59749 | -73.67149 | 3000 ft | 242 kts | 33° |
| 2026-05-05 23:15 | 40.61208 | -73.66009 | 3018 ft | 246 kts | 27° |
| 2026-05-05 23:15 | 40.62702 | -73.64906 | 3024 ft | 245 kts | 27° |
| 2026-05-05 23:15 | 40.64196 | -73.63808 | 3025 ft | 245 kts | 27° |
| 2026-05-05 23:16 | 40.65675 | -73.62717 | 3025 ft | 245 kts | 27° |
| 2026-05-05 23:16 | 40.67169 | -73.61611 | 3023 ft | 244 kts | 27° |
| 2026-05-05 23:16 | 40.68652 | -73.60512 | 3017 ft | 246 kts | 27° |
| 2026-05-05 23:16 | 40.70150 | -73.59403 | 3029 ft | 246 kts | 27° |
| 2026-05-05 23:17 | 40.71719 | -73.58595 | 3006 ft | 239 kts | 0° |
| 2026-05-05 23:17 | 40.73283 | -73.58870 | 2993 ft | 223 kts | 326° |
| 2026-05-05 23:17 | 40.74423 | -73.60085 | 3000 ft | 204 kts | 300° |
| 2026-05-05 23:17 | 40.75281 | -73.61519 | 3027 ft | 191 kts | 297° |
| 2026-05-05 23:18 | 40.76080 | -73.62852 | 3018 ft | 182 kts | 297° |
| 2026-05-05 23:18 | 40.76862 | -73.64158 | 3017 ft | 182 kts | 295° |
| 2026-05-05 23:18 | 40.77379 | -73.65636 | 2847 ft | 179 kts | 277° |
| 2026-05-05 23:18 | 40.77327 | -73.67162 | 2610 ft | 162 kts | 241° |
| 2026-05-05 23:19 | 40.76566 | -73.68090 | 2391 ft | 145 kts | 202° |
| 2026-05-05 23:19 | 40.75568 | -73.68185 | 2256 ft | 141 kts | 190° |
| 2026-05-05 23:19 | 40.74603 | -73.68221 | 2106 ft | 137 kts | 189° |
| 2026-05-05 23:19 | 40.73657 | -73.68335 | 1962 ft | 131 kts | 206° |
| 2026-05-05 23:20 | 40.72888 | -73.68964 | 1826 ft | 132 kts | 214° |
| 2026-05-05 23:20 | 40.72127 | -73.69591 | 1715 ft | 123 kts | 210° |
| 2026-05-05 23:20 | 40.71390 | -73.70119 | 1532 ft | 115 kts | 210° |
| 2026-05-05 23:20 | 40.70728 | -73.70644 | 1357 ft | 109 kts | 212° |
| 2026-05-05 23:21 | 40.70101 | -73.71157 | 1230 ft | 105 kts | 211° |
| 2026-05-05 23:21 | 40.69455 | -73.71649 | 1099 ft | 108 kts | 210° |
| 2026-05-05 23:21 | 40.68800 | -73.72161 | 977 ft | 108 kts | 210° |
| 2026-05-05 23:21 | 40.68129 | -73.72676 | 841 ft | 115 kts | 209° |
| 2026-05-05 23:22 | 40.67455 | -73.73206 | 696 ft | 110 kts | 210° |
| 2026-05-05 23:22 | 40.66793 | -73.73718 | 572 ft | 110 kts | 209° |
| 2026-05-05 23:22 | 40.66120 | -73.74236 | 415 ft | 113 kts | 210° |
| 2026-05-05 23:22 | 40.65449 | -73.74771 | 274 ft | 110 kts | 208° |
| 2026-05-05 23:23 | 40.64784 | -73.75285 | 118 ft | 111 kts | 208° |
| 2026-05-05 23:23 | 40.64151 | -73.75779 | 23 ft | 99 kts | 209° |
| 2026-05-05 23:23 | 40.63817 | -73.76041 | 23 ft | 32 kts | 210° |
| 2026-05-05 23:23 | 40.63584 | -73.76220 | 23 ft | 46 kts | 210° |
| 2026-05-05 23:24 | 40.63112 | -73.76589 | 20 ft | 117 kts | 210° |
| 2026-05-05 23:24 | 40.62289 | -73.77219 | 523 ft | 151 kts | 206° |
| 2026-05-05 23:24 | 40.61221 | -73.77845 | 1288 ft | 192 kts | 202° |
| 2026-05-05 23:24 | 40.59930 | -73.77743 | 2621 ft | 196 kts | 163° |
| 2026-05-05 23:25 | 40.58798 | -73.76671 | 3029 ft | 215 kts | 138° |
| 2026-05-05 23:25 | 40.58115 | -73.74859 | 3016 ft | 223 kts | 118° |
| 2026-05-05 23:25 | 40.57619 | -73.72938 | 3023 ft | 221 kts | 117° |
| 2026-05-05 23:25 | 40.57124 | -73.71001 | 3027 ft | 223 kts | 117° |
| 2026-05-05 23:26 | 40.56878 | -73.68986 | 3025 ft | 234 kts | 89° |
| 2026-05-05 23:26 | 40.57477 | -73.66950 | 3016 ft | 247 kts | 54° |
| 2026-05-05 23:26 | 40.58788 | -73.65513 | 3023 ft | 246 kts | 28° |
| 2026-05-05 23:26 | 40.60285 | -73.64377 | 3022 ft | 248 kts | 27° |
| 2026-05-05 23:27 | 40.61770 | -73.63260 | 3024 ft | 246 kts | 27° |
| 2026-05-05 23:27 | 40.63250 | -73.62144 | 3023 ft | 246 kts | 27° |
| 2026-05-05 23:27 | 40.64734 | -73.61020 | 3024 ft | 246 kts | 27° |
| 2026-05-05 23:27 | 40.66240 | -73.59875 | 3031 ft | 247 kts | 27° |
| 2026-05-05 23:28 | 40.67710 | -73.58758 | 3030 ft | 246 kts | 27° |
| 2026-05-05 23:28 | 40.69198 | -73.57636 | 3028 ft | 247 kts | 27° |
| 2026-05-05 23:28 | 40.70694 | -73.56507 | 3020 ft | 246 kts | 27° |
| 2026-05-05 23:28 | 40.72179 | -73.55393 | 3020 ft | 245 kts | 27° |
| 2026-05-05 23:29 | 40.73644 | -73.54292 | 3028 ft | 246 kts | 27° |
| 2026-05-05 23:29 | 40.75167 | -73.53254 | 3024 ft | 242 kts | 12° |
| 2026-05-05 23:29 | 40.76813 | -73.53142 | 3019 ft | 234 kts | 337° |
| 2026-05-05 23:29 | 40.78171 | -73.54131 | 3014 ft | 218 kts | 304° |
| 2026-05-05 23:30 | 40.79094 | -73.55627 | 3018 ft | 209 kts | 297° |
| 2026-05-05 23:30 | 40.79957 | -73.57137 | 3019 ft | 206 kts | 297° |
| 2026-05-05 23:30 | 40.80824 | -73.58638 | 3020 ft | 204 kts | 297° |
| 2026-05-05 23:30 | 40.81679 | -73.60104 | 3019 ft | 203 kts | 297° |
| 2026-05-05 23:31 | 40.82437 | -73.61639 | 3014 ft | 194 kts | 278° |
| 2026-05-05 23:31 | 40.82483 | -73.63326 | 3043 ft | 180 kts | 255° |
| 2026-05-05 23:31 | 40.81994 | -73.64745 | 3015 ft | 164 kts | 223° |
| 2026-05-05 23:31 | 40.80982 | -73.65289 | 3007 ft | 157 kts | 195° |
| 2026-05-05 23:32 | 40.79976 | -73.65755 | 3022 ft | 157 kts | 210° |
| 2026-05-05 23:32 | 40.79024 | -73.66461 | 3015 ft | 156 kts | 211° |
| 2026-05-05 23:32 | 40.78067 | -73.67153 | 3003 ft | 156 kts | 211° |
| 2026-05-05 23:32 | 40.77141 | -73.67808 | 2820 ft | 142 kts | 211° |
| 2026-05-05 23:33 | 40.76280 | -73.68418 | 2653 ft | 139 kts | 211° |
| 2026-05-05 23:33 | 40.75447 | -73.69007 | 2484 ft | 133 kts | 211° |
| 2026-05-05 23:33 | 40.74651 | -73.69572 | 2318 ft | 124 kts | 210° |
| 2026-05-05 23:33 | 40.73956 | -73.70050 | 2140 ft | 102 kts | 210° |
| 2026-05-05 23:34 | 40.73341 | -73.70483 | 1988 ft | 98 kts | 211° |
| 2026-05-05 23:34 | 40.72738 | -73.70923 | 1850 ft | 101 kts | 210° |
| 2026-05-05 23:34 | 40.72121 | -73.71364 | 1710 ft | 100 kts | 210° |
| 2026-05-05 23:34 | 40.71492 | -73.71784 | 1567 ft | 100 kts | 209° |
| 2026-05-05 23:35 | 40.70879 | -73.72217 | 1453 ft | 99 kts | 210° |
| 2026-05-05 23:35 | 40.70260 | -73.72691 | 1336 ft | 106 kts | 210° |
| 2026-05-05 23:35 | 40.69570 | -73.73128 | 1215 ft | 109 kts | 206° |
| 2026-05-05 23:35 | 40.68869 | -73.73534 | 1121 ft | 109 kts | 206° |
| 2026-05-05 23:36 | 40.68176 | -73.73956 | 979 ft | 109 kts | 208° |
| 2026-05-05 23:36 | 40.67520 | -73.74419 | 827 ft | 105 kts | 210° |
| 2026-05-05 23:36 | 40.66879 | -73.74910 | 684 ft | 109 kts | 210° |
| 2026-05-05 23:36 | 40.66220 | -73.75420 | 525 ft | 108 kts | 210° |
| 2026-05-05 23:37 | 40.65586 | -73.75923 | 342 ft | 104 kts | 209° |
| 2026-05-05 23:37 | 40.64945 | -73.76419 | 204 ft | 108 kts | 208° |
| 2026-05-05 23:37 | 40.64300 | -73.76923 | 96 ft | 104 kts | 208° |
| 2026-05-05 23:37 | 40.63718 | -73.77391 | 23 ft | 86 kts | 207° |
| 2026-05-05 23:38 | 40.63159 | -73.77821 | 111 ft | 113 kts | 208° |
| 2026-05-05 23:38 | 40.62393 | -73.78332 | 654 ft | 137 kts | 195° |
| 2026-05-05 23:38 | 40.61483 | -73.77866 | 1534 ft | 176 kts | 138° |
| 2026-05-05 23:38 | 40.61032 | -73.76226 | 2470 ft | 210 kts | 115° |
| 2026-05-05 23:39 | 40.60534 | -73.74220 | 3007 ft | 259 kts | 116° |
| 2026-05-05 23:39 | 40.59804 | -73.71690 | 3031 ft | 321 kts | 117° |
| 2026-05-05 23:39 | 40.59011 | -73.69027 | 3029 ft | 306 kts | 117° |
| 2026-05-05 23:39 | 40.58276 | -73.66499 | 3031 ft | 289 kts | 117° |
| 2026-05-05 23:40 | 40.57594 | -73.64092 | 3029 ft | 273 kts | 117° |
| 2026-05-05 23:40 | 40.57093 | -73.61730 | 3034 ft | 267 kts | 99° |
| 2026-05-05 23:40 | 40.57414 | -73.59353 | 3034 ft | 266 kts | 67° |
| 2026-05-05 23:40 | 40.58532 | -73.57523 | 3029 ft | 256 kts | 34° |
| 2026-05-05 23:41 | 40.60022 | -73.56315 | 3028 ft | 247 kts | 27° |
| 2026-05-05 23:41 | 40.61495 | -73.55193 | 3025 ft | 245 kts | 27° |
| 2026-05-05 23:41 | 40.62987 | -73.54054 | 3027 ft | 246 kts | 27° |
| 2026-05-05 23:41 | 40.64471 | -73.52921 | 3037 ft | 246 kts | 27° |
| 2026-05-05 23:42 | 40.65954 | -73.51787 | 3038 ft | 246 kts | 27° |
| 2026-05-05 23:42 | 40.67416 | -73.50662 | 3034 ft | 246 kts | 27° |
| 2026-05-05 23:42 | 40.68889 | -73.49534 | 3032 ft | 246 kts | 27° |
| 2026-05-05 23:42 | 40.70381 | -73.48392 | 3026 ft | 246 kts | 27° |
| 2026-05-05 23:43 | 40.71846 | -73.47271 | 3026 ft | 245 kts | 27° |
| 2026-05-05 23:43 | 40.73345 | -73.46122 | 3037 ft | 246 kts | 24° |
| 2026-05-05 23:43 | 40.74945 | -73.45509 | 3045 ft | 239 kts | 352° |
| 2026-05-05 23:43 | 40.76497 | -73.46061 | 3029 ft | 226 kts | 316° |
| 2026-05-05 23:44 | 40.77551 | -73.47429 | 3021 ft | 208 kts | 297° |
| 2026-05-05 23:44 | 40.78436 | -73.48907 | 3021 ft | 203 kts | 297° |
| 2026-05-05 23:44 | 40.79313 | -73.50381 | 3024 ft | 203 kts | 297° |
| 2026-05-05 23:44 | 40.80188 | -73.51856 | 3021 ft | 203 kts | 297° |
| 2026-05-05 23:45 | 40.81056 | -73.53325 | 3015 ft | 203 kts | 297° |
| 2026-05-05 23:45 | 40.81921 | -73.54785 | 3013 ft | 203 kts | 297° |
| 2026-05-05 23:45 | 40.82758 | -73.56290 | 3020 ft | 198 kts | 286° |
| 2026-05-05 23:45 | 40.82957 | -73.57973 | 3022 ft | 179 kts | 250° |
| 2026-05-05 23:46 | 40.82486 | -73.59390 | 3016 ft | 165 kts | 237° |
| 2026-05-05 23:46 | 40.81916 | -73.60665 | 3013 ft | 155 kts | 236° |
| 2026-05-05 23:46 | 40.81395 | -73.61882 | 3017 ft | 153 kts | 234° |
| 2026-05-05 23:46 | 40.80656 | -73.62898 | 3024 ft | 156 kts | 216° |
| 2026-05-05 23:47 | 40.79735 | -73.63652 | 3013 ft | 154 kts | 211° |
| 2026-05-05 23:47 | 40.78797 | -73.64364 | 3024 ft | 155 kts | 211° |
| 2026-05-05 23:47 | 40.77877 | -73.65073 | 2970 ft | 156 kts | 212° |
| 2026-05-05 23:47 | 40.76971 | -73.65778 | 2784 ft | 144 kts | 212° |
| 2026-05-05 23:48 | 40.76121 | -73.66438 | 2615 ft | 135 kts | 211° |
| 2026-05-05 23:48 | 40.75349 | -73.67014 | 2427 ft | 123 kts | 212° |
| 2026-05-05 23:48 | 40.74674 | -73.67551 | 2250 ft | 104 kts | 213° |
| 2026-05-05 23:48 | 40.74079 | -73.68031 | 2135 ft | 99 kts | 213° |
| 2026-05-05 23:49 | 40.73473 | -73.68514 | 2038 ft | 105 kts | 212° |
| 2026-05-05 23:49 | 40.72852 | -73.69002 | 1891 ft | 105 kts | 212° |
| 2026-05-05 23:49 | 40.72220 | -73.69482 | 1752 ft | 104 kts | 212° |
| 2026-05-05 23:49 | 40.71599 | -73.69970 | 1605 ft | 105 kts | 211° |
| 2026-05-05 23:50 | 40.70962 | -73.70461 | 1477 ft | 105 kts | 211° |
| 2026-05-05 23:50 | 40.70338 | -73.70966 | 1344 ft | 107 kts | 211° |
| 2026-05-05 23:50 | 40.69690 | -73.71460 | 1187 ft | 107 kts | 209° |
| 2026-05-05 23:50 | 40.69043 | -73.71970 | 1039 ft | 110 kts | 211° |
| 2026-05-05 23:51 | 40.68380 | -73.72489 | 894 ft | 112 kts | 208° |
| 2026-05-05 23:51 | 40.67707 | -73.73004 | 755 ft | 111 kts | 210° |
| 2026-05-05 23:51 | 40.67039 | -73.73525 | 624 ft | 110 kts | 208° |
| 2026-05-05 23:51 | 40.66378 | -73.74040 | 489 ft | 110 kts | 210° |
| 2026-05-05 23:52 | 40.65731 | -73.74545 | 339 ft | 106 kts | 208° |
| 2026-05-05 23:52 | 40.65094 | -73.75041 | 208 ft | 103 kts | 207° |
| 2026-05-05 23:52 | 40.64482 | -73.75520 | 63 ft | 103 kts | 207° |
| 2026-05-05 23:52 | 40.63908 | -73.75967 | 23 ft | 75 kts | 210° |
| 2026-05-05 23:53 | 40.63627 | -73.76186 | 23 ft | 27 kts | 211° |